Terminal Aerodrome Forecast
Issued by NWS Northern Indiana

Home | Current Version | Previous Version | Graphics & Text | Print | Product List | Glossary On
Versions: 1 2 3 4 5 6 7 8 9 10 11 12 13 14 15 16 17
000
FTUS43 KIWX 162236 AAA
TAFFWA
TAF AMD
KFWA 162236Z 1623/1718 28017KT 3SM -SN BR BKN018 OVC025
      TEMPO 1623/1624 1SM -SN BR
     FM170200 28013KT P6SM VCSH OVC020
     FM170600 27014G18KT P6SM OVC025=

USA.gov is the U.S. government's official web portal to all federal, state and local government web resources and services.